Time;durP1;ratioP1;P1;durP2;ratioP2;P2;SDS_P1;SDS_P2;PMS_P1;PMS_P2;Temp;Humidity;BMP_temperature;BMP_pressure;BME280_temperature;BME280_humidity;BME280_pressure;Samples;Min_cycle;Max_cycle;Signal;HPM_P1;HPM_P2
2023/08/02 00:00:36;;;;;;;14.70;12.73;;;;;;;25.45;53.05;98579.19;5011718;28;20160;-83
2023/08/02 00:03:02;;;;;;;14.05;12.43;;;;;;;25.33;53.92;98586.53;5010388;28;20124;-83
2023/08/02 00:05:28;;;;;;;19.02;13.98;;;;;;;25.22;53.87;98575.44;5012025;28;20092;-83
2023/08/02 00:07:53;;;;;;;16.77;12.88;;;;;;;25.42;53.53;98585.84;5015483;28;20025;-83
2023/08/02 00:10:19;;;;;;;17.92;12.52;;;;;;;25.41;53.58;98579.31;5013729;28;20091;-83
2023/08/02 00:12:44;;;;;;;15.38;12.60;;;;;;;25.60;52.75;98580.38;5012040;28;20115;-83
2023/08/02 00:15:10;;;;;;;18.00;12.98;;;;;;;25.61;52.50;98575.44;5013596;28;20049;-83
2023/08/02 00:17:35;;;;;;;12.75;11.43;;;;;;;25.50;52.82;98576.56;5014144;28;20551;-83
2023/08/02 00:20:01;;;;;;;13.82;11.70;;;;;;;25.25;53.28;98577.38;5014299;28;20025;-83
2023/08/02 00:22:26;;;;;;;14.80;11.50;;;;;;;25.34;53.46;98591.81;5013979;28;20022;-84
2023/08/02 00:24:52;;;;;;;18.83;13.20;;;;;;;25.24;53.55;98581.50;5014058;28;20095;-84
2023/08/02 00:27:17;;;;;;;21.20;13.35;;;;;;;25.14;53.65;98559.75;5013785;28;20033;-83
2023/08/02 00:29:43;;;;;;;15.30;12.95;;;;;;;24.30;56.49;98590.75;5001863;28;20528;-83
2023/08/02 00:32:08;;;;;;;16.13;13.65;;;;;;;24.75;55.61;98589.09;4994214;28;20449;-83
2023/08/02 00:34:33;;;;;;;15.07;13.57;;;;;;;24.72;55.37;98572.03;4994048;28;20023;-83
2023/08/02 00:37:01;;;;;;;16.77;13.63;;;;;;;24.94;54.94;98586.50;4995623;28;20125;-83
2023/08/02 00:39:26;;;;;;;22.15;13.93;;;;;;;24.87;54.95;98581.03;4995569;28;20129;-83
2023/08/02 00:41:52;;;;;;;18.00;13.55;;;;;;;24.50;55.62;98595.53;5013370;28;20540;-83
2023/08/02 00:44:17;;;;;;;16.50;13.43;;;;;;;23.88;57.34;98599.22;5013803;28;20024;-83
2023/08/02 00:46:43;;;;;;;16.50;14.23;;;;;;;23.49;58.45;98593.25;4996179;28;20138;-83
2023/08/02 00:49:10;;;;;;;15.23;13.15;;;;;;;23.75;58.07;98599.13;5012491;28;20025;-83
2023/08/02 00:51:36;;;;;;;14.52;13.10;;;;;;;23.59;58.17;98599.91;5013658;28;20026;-83
2023/08/02 00:54:02;;;;;;;14.57;13.10;;;;;;;23.77;57.53;98606.00;5013440;28;20025;-82
2023/08/02 00:56:31;;;;;;;17.30;13.98;;;;;;;22.98;60.07;98605.78;5013028;28;20021;-83
2023/08/02 00:58:58;;;;;;;16.87;14.27;;;;;;;22.77;60.67;98610.72;5013611;28;20112;-84
2023/08/02 01:01:24;;;;;;;18.70;14.85;;;;;;;22.32;62.13;98602.63;5012756;28;20026;-83
2023/08/02 01:03:51;;;;;;;18.13;13.65;;;;;;;22.81;60.84;98611.44;5029514;28;20115;-83
2023/08/02 01:06:29;;;;;;;15.27;12.43;;;;;;;23.07;59.91;98623.09;5013376;28;20544;-84
2023/08/02 01:09:03;;;;;;;14.93;13.35;;;;;;;23.13;59.28;98604.22;5013185;28;20025;-84
2023/08/02 01:11:40;;;;;;;14.27;12.88;;;;;;;23.41;59.20;98619.09;5012985;28;20108;-84
2023/08/02 01:14:08;;;;;;;15.05;12.20;;;;;;;23.70;58.20;98614.72;5013124;28;20021;-83
2023/08/02 01:16:36;;;;;;;13.73;12.40;;;;;;;23.73;58.09;98613.03;5012632;28;20029;-84
2023/08/02 01:19:07;;;;;;;15.27;13.18;;;;;;;23.82;57.82;98613.22;5012976;28;20029;-83
2023/08/02 01:21:33;;;;;;;15.50;13.18;;;;;;;23.86;57.29;98618.84;5012266;28;20022;-83
2023/08/02 01:23:58;;;;;;;16.35;13.00;;;;;;;23.93;57.05;98619.47;5012951;28;20503;-83
2023/08/02 01:26:27;;;;;;;14.75;13.20;;;;;;;23.91;56.92;98604.84;5012774;28;20109;-83
2023/08/02 01:28:55;;;;;;;16.30;12.55;;;;;;;24.08;56.85;98628.50;5012854;28;20400;-84
2023/08/02 01:31:21;;;;;;;16.75;12.77;;;;;;;24.08;57.02;98624.81;5012811;28;20022;-84
2023/08/02 01:33:52;;;;;;;15.27;13.63;;;;;;;24.16;56.60;98623.38;5012718;28;20028;-84
2023/08/02 01:36:18;;;;;;;17.00;12.88;;;;;;;24.16;56.52;98623.38;5012743;28;20032;-84
2023/08/02 01:38:43;;;;;;;14.10;12.32;;;;;;;24.23;55.84;98614.59;5011828;28;20444;-83
2023/08/02 01:41:09;;;;;;;17.98;12.63;;;;;;;24.35;55.67;98620.84;5012356;28;20060;-84
2023/08/02 01:43:34;;;;;;;16.58;13.55;;;;;;;24.14;56.84;98631.59;5012500;28;20485;-84
2023/08/02 01:46:00;;;;;;;19.50;12.48;;;;;;;23.49;58.44;98631.16;5012360;28;20056;-83
2023/08/02 01:48:26;;;;;;;17.77;12.57;;;;;;;23.32;58.97;98626.66;5012614;28;20021;-84
2023/08/02 01:50:52;;;;;;;14.63;13.13;;;;;;;23.57;58.13;98620.38;5013650;28;20026;-85
2023/08/02 01:53:17;;;;;;;14.95;13.35;;;;;;;23.72;57.88;98620.81;5012503;28;20096;-84
2023/08/02 01:55:43;;;;;;;19.77;12.43;;;;;;;23.32;57.92;98586.72;5011277;28;20459;-84
2023/08/02 01:58:09;;;;;;;13.80;12.43;;;;;;;23.32;58.64;98627.47;5012296;28;20029;-84
2023/08/02 02:00:34;;;;;;;13.88;12.40;;;;;;;23.47;58.29;98633.66;5013776;28;20127;-84
2023/08/02 02:03:00;;;;;;;15.70;13.05;;;;;;;23.52;57.78;98606.59;5012118;28;20080;-84
2023/08/02 02:05:26;;;;;;;14.82;13.27;;;;;;;23.53;58.63;98636.75;5012101;28;20512;-84
2023/08/02 02:07:51;;;;;;;18.08;13.60;;;;;;;23.54;58.30;98638.38;5011966;28;20465;-84
2023/08/02 02:10:17;;;;;;;13.98;12.57;;;;;;;23.56;58.23;98641.59;5011723;28;20564;-84
2023/08/02 02:12:42;;;;;;;17.92;12.90;;;;;;;23.39;58.63;98637.91;5011843;28;20088;-84
2023/08/02 02:15:08;;;;;;;20.88;13.15;;;;;;;23.31;59.26;98642.16;5012161;28;20034;-84
2023/08/02 02:17:33;;;;;;;14.98;11.93;;;;;;;23.38;58.61;98639.94;5011840;28;20022;-84
2023/08/02 02:19:59;;;;;;;15.07;11.88;;;;;;;23.31;59.06;98642.16;5011978;28;20028;-83
2023/08/02 02:22:24;;;;;;;19.65;13.55;;;;;;;22.99;59.81;98633.88;5011773;28;20025;-84
2023/08/02 02:24:50;;;;;;;20.17;13.05;;;;;;;22.82;60.57;98635.84;5011592;28;20575;-84
2023/08/02 02:27:15;;;;;;;17.65;13.13;;;;;;;22.80;60.19;98620.44;5011285;28;20062;-84
2023/08/02 02:29:41;;;;;;;15.02;12.95;;;;;;;22.72;60.59;98643.38;5010366;28;20033;-83
2023/08/02 02:32:06;;;;;;;22.13;14.10;;;;;;;22.84;60.31;98644.78;5011806;28;20022;-84
2023/08/02 02:34:32;;;;;;;13.30;12.10;;;;;;;23.22;59.37;98648.44;5011504;28;20029;-84
2023/08/02 02:36:58;;;;;;;14.45;12.93;;;;;;;23.22;59.12;98634.97;5011519;28;20484;-84
2023/08/02 02:39:24;;;;;;;21.13;13.27;;;;;;;23.16;59.29;98653.88;5013765;28;20022;-89
2023/08/02 02:41:49;;;;;;;19.30;13.30;;;;;;;23.08;59.64;98652.41;5013247;28;20057;-89
2023/08/02 02:44:15;;;;;;;19.17;13.25;;;;;;;23.11;59.63;98658.03;5012696;28;20083;-89
2023/08/02 02:46:40;;;;;;;17.77;13.80;;;;;;;23.19;59.62;98657.91;5012356;28;20041;-88
2023/08/02 02:49:06;;;;;;;18.92;13.80;;;;;;;23.10;59.84;98665.00;5012205;28;20029;-89
2023/08/02 02:51:31;;;;;;;16.98;13.57;;;;;;;22.91;60.48;98660.09;5012402;28;20386;-89
2023/08/02 02:53:57;;;;;;;14.75;13.25;;;;;;;22.62;61.24;98663.53;5012456;28;20025;-89
2023/08/02 02:56:22;;;;;;;15.65;13.85;;;;;;;22.19;62.92;98660.22;5012404;28;20397;-89
2023/08/02 02:58:48;;;;;;;49.35;15.35;;;;;;;22.18;62.89;98669.22;5012147;28;20029;-89
2023/08/02 03:01:14;;;;;;;16.88;13.60;;;;;;;22.10;62.91;98665.69;5012116;28;20169;-89
2023/08/02 03:03:39;;;;;;;14.13;12.63;;;;;;;22.43;62.03;98661.00;5012041;28;20030;-89
2023/08/02 03:06:05;;;;;;;19.83;14.38;;;;;;;22.52;61.75;98663.31;5012537;28;20088;-88
2023/08/02 03:08:31;;;;;;;17.90;12.85;;;;;;;22.83;60.68;98665.97;5011733;28;20031;-88
2023/08/02 03:10:56;;;;;;;16.75;14.02;;;;;;;22.72;60.94;98665.38;5011655;28;20109;-87
2023/08/02 03:13:22;;;;;;;17.98;14.15;;;;;;;22.57;61.51;98659.16;5011482;28;20025;-89
2023/08/02 03:15:48;;;;;;;18.80;13.35;;;;;;;22.28;62.47;98671.06;5011932;28;20022;-89
2023/08/02 03:18:13;;;;;;;35.80;16.77;;;;;;;22.27;62.82;98664.56;5008521;28;20488;-89
2023/08/02 03:20:39;;;;;;;35.28;14.38;;;;;;;22.04;63.52;98668.25;4991943;28;20062;-88
2023/08/02 03:23:05;;;;;;;15.45;13.85;;;;;;;21.87;64.58;98664.44;4992072;28;20030;-88
2023/08/02 03:25:31;;;;;;;17.30;14.32;;;;;;;21.75;65.17;98665.84;5008601;28;20049;-88
2023/08/02 03:27:56;;;;;;;16.48;14.57;;;;;;;21.55;65.87;98671.41;5011422;28;20060;-88
2023/08/02 03:30:22;;;;;;;16.73;14.82;;;;;;;21.32;66.43;98664.44;5010561;28;20021;-88
2023/08/02 03:32:47;;;;;;;22.58;15.40;;;;;;;21.18;67.29;98671.16;5012902;28;20026;-89
2023/08/02 03:35:13;;;;;;;20.45;15.27;;;;;;;20.85;68.67;98668.69;4999333;28;20515;-88
2023/08/02 03:37:38;;;;;;;16.95;14.35;;;;;;;20.81;69.15;98667.94;4992053;28;20061;-89
2023/08/02 03:40:04;;;;;;;17.85;15.20;;;;;;;20.72;69.73;98659.91;5007239;28;20022;-89
2023/08/02 03:42:30;;;;;;;18.42;14.80;;;;;;;20.83;69.42;98665.47;5011413;28;20052;-88
2023/08/02 03:44:55;;;;;;;17.20;15.40;;;;;;;21.12;68.40;98667.16;5011422;28;20026;-88
2023/08/02 03:47:20;;;;;;;15.43;12.82;;;;;;;20.76;69.52;98686.25;5011054;28;20046;-88
2023/08/02 03:49:46;;;;;;;16.40;14.45;;;;;;;20.47;70.80;98682.91;5010717;28;20091;-89
2023/08/02 03:52:11;;;;;;;21.70;16.13;;;;;;;20.61;70.86;98682.75;5012468;28;20026;-89
2023/08/02 03:54:37;;;;;;;25.35;16.58;;;;;;;20.53;71.35;98680.41;5011260;28;20049;-88
2023/08/02 03:57:02;;;;;;;20.48;15.65;;;;;;;20.44;71.78;98695.13;5010561;28;20030;-88
2023/08/02 03:59:28;;;;;;;25.05;16.30;;;;;;;20.48;72.20;98690.19;5011202;28;20061;-88
2023/08/02 04:01:53;;;;;;;17.58;15.10;;;;;;;20.46;71.84;98689.81;5009304;28;20088;-88
2023/08/02 04:04:19;;;;;;;23.70;16.02;;;;;;;20.20;72.89;98692.91;5010549;28;20444;-88
2023/08/02 04:06:44;;;;;;;20.65;15.98;;;;;;;20.23;73.19;98696.94;5011227;28;20029;-89
2023/08/02 04:09:10;;;;;;;17.60;14.80;;;;;;;20.24;73.12;98695.72;5009301;28;20467;-89
2023/08/02 04:11:35;;;;;;;22.40;15.68;;;;;;;20.09;73.78;98682.88;4991914;28;20092;-89
2023/08/02 04:14:01;;;;;;;20.35;16.15;;;;;;;20.53;72.09;98684.06;5008007;28;20037;-89
2023/08/02 04:16:26;;;;;;;25.77;17.92;;;;;;;20.45;71.86;98665.50;5010577;28;20447;-89
2023/08/02 04:18:52;;;;;;;18.77;14.35;;;;;;;20.81;70.60;98687.84;5007716;28;20042;-89
2023/08/02 04:21:21;;;;;;;19.50;14.18;;;;;;;20.76;70.78;98685.44;5011127;28;20049;-88
2023/08/02 04:23:50;;;;;;;18.42;14.25;;;;;;;20.99;70.39;98670.56;5011137;28;20026;-88
2023/08/02 04:26:15;;;;;;;16.60;13.85;;;;;;;21.03;70.07;98677.00;5009786;28;20123;-90
2023/08/02 04:28:41;;;;;;;18.77;13.82;;;;;;;21.38;68.83;98679.81;5011513;28;20053;-90
2023/08/02 04:31:06;;;;;;;22.58;14.18;;;;;;;21.58;68.21;98674.22;5010142;28;20104;-90
2023/08/02 04:33:32;;;;;;;18.17;14.13;;;;;;;21.77;67.58;98673.97;5010799;28;20523;-89
2023/08/02 04:35:59;;;;;;;20.02;12.88;;;;;;;21.52;68.38;98675.13;5011240;28;20052;-88
2023/08/02 04:38:25;;;;;;;19.65;13.48;;;;;;;21.81;67.64;98666.16;5009733;28;20030;-89
2023/08/02 04:40:51;;;;;;;15.77;12.93;;;;;;;21.67;68.15;98673.69;5010116;28;20032;-92
2023/08/02 04:43:16;;;;;;;18.42;12.85;;;;;;;21.68;68.50;98686.69;5012175;28;20109;-89
2023/08/02 04:45:42;;;;;;;16.25;12.30;;;;;;;21.82;68.13;98685.66;5009521;28;20034;-89
2023/08/02 04:48:07;;;;;;;19.67;12.85;;;;;;;21.99;67.69;98686.63;5010554;28;20513;-89
2023/08/02 04:50:35;;;;;;;16.90;11.77;;;;;;;21.94;67.06;98675.69;5009670;28;20025;-87
2023/08/02 04:53:01;;;;;;;15.35;12.85;;;;;;;22.14;66.95;98686.38;5014104;28;20026;-87
2023/08/02 04:55:27;;;;;;;15.52;13.35;;;;;;;22.16;66.74;98692.41;5017832;28;20099;-88
2023/08/02 04:57:52;;;;;;;14.00;12.23;;;;;;;22.23;66.49;98683.75;5019522;28;20033;-87
2023/08/02 05:00:18;;;;;;;14.75;12.07;;;;;;;22.05;67.44;98681.22;5019421;28;20461;-87
2023/08/02 05:02:45;;;;;;;13.48;12.07;;;;;;;22.10;67.35;98694.16;5019697;28;20030;-88
2023/08/02 05:05:10;;;;;;;16.50;13.77;;;;;;;22.27;67.28;98684.50;5019128;28;20034;-87
2023/08/02 05:07:37;;;;;;;14.43;11.95;;;;;;;22.35;67.27;98692.91;5013929;28;20037;-87
2023/08/02 05:10:04;;;;;;;16.27;12.68;;;;;;;22.28;66.86;98680.41;5013011;28;20037;-87
2023/08/02 05:12:39;;;;;;;12.85;11.52;;;;;;;22.52;66.25;98683.25;5013778;28;20026;-87
2023/08/02 05:15:06;;;;;;;19.92;10.48;;;;;;;22.62;66.22;98689.97;5013258;28;20460;-87
2023/08/02 05:17:31;;;;;;;14.73;11.77;;;;;;;22.76;66.43;98699.53;5013166;28;20101;-86
2023/08/02 05:19:57;;;;;;;10.85;9.68;;;;;;;22.83;66.14;98711.56;5013217;28;20488;-87
2023/08/02 05:22:23;;;;;;;12.55;11.07;;;;;;;22.85;65.98;98709.09;5012934;28;20112;-86
2023/08/02 05:24:54;;;;;;;11.55;9.55;;;;;;;23.26;65.46;98709.88;5009918;28;20030;-90
2023/08/02 05:27:20;;;;;;;13.95;11.73;;;;;;;23.40;64.61;98714.47;5011908;28;20017;-89
2023/08/02 05:29:45;;;;;;;11.55;8.93;;;;;;;23.59;64.14;98709.19;5013643;28;20033;-89
2023/08/02 05:32:11;;;;;;;12.90;9.63;;;;;;;24.00;63.31;98709.03;5013739;28;20615;-88
2023/08/02 05:34:37;;;;;;;12.43;10.07;;;;;;;24.33;61.95;98704.16;5014437;28;20048;-88
2023/08/02 05:37:02;;;;;;;10.75;9.65;;;;;;;24.79;60.94;98700.50;5013878;28;20072;-86
2023/08/02 05:39:28;;;;;;;8.98;7.93;;;;;;;24.91;60.54;98693.22;5013418;28;20037;-87
2023/08/02 05:41:53;;;;;;;12.82;8.93;;;;;;;24.61;60.67;98695.25;5013338;28;20049;-87
2023/08/02 05:44:19;;;;;;;13.98;8.43;;;;;;;25.22;59.26;98704.19;5013282;28;20084;-87
2023/08/02 05:46:44;;;;;;;11.30;8.95;;;;;;;25.29;58.72;98708.91;5012345;28;20045;-88
2023/08/02 05:49:10;;;;;;;14.52;8.68;;;;;;;24.99;60.07;98726.09;5013118;28;20049;-88
2023/08/02 05:51:35;;;;;;;13.98;9.50;;;;;;;24.61;61.32;98713.22;5010152;28;20041;-88
2023/08/02 05:54:01;;;;;;;11.35;9.60;;;;;;;24.45;61.75;98714.03;4993286;28;20638;-87
2023/08/02 05:56:26;;;;;;;15.65;8.80;;;;;;;24.53;62.15;98715.47;5002649;28;20401;-87
2023/08/02 05:58:52;;;;;;;18.08;9.40;;;;;;;24.53;61.67;98714.66;5012091;28;20120;-87
2023/08/02 06:01:17;;;;;;;20.13;9.02;;;;;;;24.62;61.67;98711.97;5012087;28;20030;-87
2023/08/02 06:03:43;;;;;;;15.27;10.27;;;;;;;24.74;61.32;98713.28;5011696;28;20044;-89
2023/08/02 06:06:08;;;;;;;15.43;9.73;;;;;;;24.77;61.65;98712.41;5012900;28;20037;-89
2023/08/02 06:08:34;;;;;;;13.00;8.25;;;;;;;24.96;60.49;98715.53;5014358;28;20057;-88
2023/08/02 06:11:01;;;;;;;10.23;9.25;;;;;;;24.93;60.48;98705.81;5012151;28;20030;-89
2023/08/02 06:13:27;;;;;;;10.73;9.70;;;;;;;25.23;59.15;98688.63;5008698;28;20023;-89
2023/08/02 06:15:52;;;;;;;25.58;10.32;;;;;;;25.15;60.18;98710.91;5011771;28;20121;-88
2023/08/02 06:18:18;;;;;;;15.77;10.82;;;;;;;25.22;59.89;98707.84;5029722;28;20067;-89
2023/08/02 06:20:44;;;;;;;12.70;9.85;;;;;;;25.21;59.52;98688.25;5032902;28;20028;-89
2023/08/02 06:23:09;;;;;;;10.45;9.45;;;;;;;24.85;60.87;98703.59;5021358;28;20083;-89
2023/08/02 06:25:34;;;;;;;12.05;10.25;;;;;;;25.19;59.64;98716.53;5012765;28;20030;-90
2023/08/02 06:28:00;;;;;;;13.95;9.35;;;;;;;25.19;59.96;98711.63;5012823;28;20121;-90
2023/08/02 06:30:25;;;;;;;14.63;9.50;;;;;;;24.86;60.65;98697.44;5012668;28;20172;-89
2023/08/02 06:32:51;;;;;;;13.95;9.75;;;;;;;25.19;59.96;98707.94;5012512;28;20471;-91
2023/08/02 06:35:16;;;;;;;13.05;9.70;;;;;;;25.49;59.38;98705.84;5012422;28;20033;-89
2023/08/02 06:37:42;;;;;;;13.15;10.00;;;;;;;25.57;58.80;98710.09;5012493;28;20032;-88
2023/08/02 06:40:08;;;;;;;11.75;9.80;;;;;;;24.89;60.72;98712.91;5012444;28;20034;-90
2023/08/02 06:42:33;;;;;;;11.75;9.93;;;;;;;25.42;59.60;98706.03;5012282;28;20274;-89
2023/08/02 06:44:59;;;;;;;12.82;10.23;;;;;;;25.60;58.78;98706.31;5012460;28;20527;-89
2023/08/02 06:47:25;;;;;;;10.75;9.00;;;;;;;25.98;57.96;98706.78;5011940;28;20046;-88
2023/08/02 06:49:50;;;;;;;15.07;10.40;;;;;;;26.16;57.40;98697.56;5030821;28;20488;-88
2023/08/02 06:52:16;;;;;;;10.38;9.27;;;;;;;26.40;56.54;98711.53;5028597;28;20036;-87
2023/08/02 06:54:42;;;;;;;10.75;9.60;;;;;;;26.19;56.49;98700.34;5011576;28;20080;-86
2023/08/02 06:57:08;;;;;;;13.65;9.55;;;;;;;25.93;57.41;98714.66;5011641;28;20452;-86
2023/08/02 06:59:34;;;;;;;11.57;9.50;;;;;;;26.24;56.91;98723.94;5012857;28;20022;-87
2023/08/02 07:01:59;;;;;;;15.60;10.02;;;;;;;26.15;57.14;98707.44;5010960;28;20041;-87
2023/08/02 07:04:25;;;;;;;10.85;9.20;;;;;;;26.61;56.20;98724.31;5012726;28;20072;-87
2023/08/02 07:06:50;;;;;;;11.63;9.25;;;;;;;26.40;56.56;98726.66;5012861;28;20018;-86
2023/08/02 07:09:16;;;;;;;14.63;10.20;;;;;;;25.89;58.31;98725.44;5011584;28;20105;-86
2023/08/02 07:11:41;;;;;;;12.90;9.85;;;;;;;26.33;57.19;98715.47;5007973;28;20033;-86
2023/08/02 07:14:07;;;;;;;11.10;9.80;;;;;;;26.13;57.29;98712.84;4991689;28;20014;-87
2023/08/02 07:16:32;;;;;;;11.27;9.20;;;;;;;26.44;56.29;98701.56;4997473;28;20180;-86
2023/08/02 07:19:02;;;;;;;11.30;10.18;;;;;;;26.99;57.46;98708.25;5008848;28;20029;-88
2023/08/02 07:21:29;;;;;;;9.73;8.82;;;;;;;27.43;55.27;98701.66;5011444;28;20121;-88
2023/08/02 07:23:55;;;;;;;12.65;10.02;;;;;;;27.73;55.30;98694.34;5011467;28;20034;-88
2023/08/02 07:26:22;;;;;;;15.23;8.75;;;;;;;27.46;53.39;98695.78;5011532;28;20033;-88
2023/08/02 07:28:48;;;;;;;14.40;8.93;;;;;;;27.58;53.12;98705.59;5011722;28;20049;-88
2023/08/02 07:31:14;;;;;;;9.57;8.60;;;;;;;27.71;52.58;98704.69;5012249;28;20057;-88
2023/08/02 07:33:40;;;;;;;12.77;9.85;;;;;;;27.92;51.92;98707.97;5011685;28;20485;-87
2023/08/02 07:36:12;;;;;;;15.35;8.93;;;;;;;28.28;51.78;98707.28;5004044;28;20037;-88
2023/08/02 07:38:37;;;;;;;13.68;9.73;;;;;;;28.64;50.75;98707.81;5008490;28;20025;-86
2023/08/02 07:41:04;;;;;;;20.30;9.15;;;;;;;28.86;50.04;98701.16;5011942;28;20078;-86
2023/08/02 07:43:29;;;;;;;16.23;10.02;;;;;;;29.02;51.41;98704.97;5010230;28;20100;-85
2023/08/02 07:45:56;;;;;;;12.75;9.43;;;;;;;29.13;49.32;98700.28;4993950;28;20509;-85
2023/08/02 07:48:22;;;;;;;39.45;10.43;;;;;;;28.96;49.82;98701.94;5008974;28;20034;-84
2023/08/02 07:50:47;;;;;;;10.65;9.55;;;;;;;28.51;50.11;98684.19;5010025;28;20467;-84
2023/08/02 07:53:13;;;;;;;10.32;9.13;;;;;;;28.44;51.92;98691.03;5010263;28;20542;-84
2023/08/02 07:55:38;;;;;;;13.98;9.45;;;;;;;28.35;50.17;98683.19;5010555;28;20089;-84
2023/08/02 07:58:04;;;;;;;11.65;9.95;;;;;;;28.50;50.13;98671.06;5007139;28;20034;-84
2023/08/02 08:00:29;;;;;;;10.30;9.30;;;;;;;28.76;49.17;98679.38;5007650;28;20025;-84
2023/08/02 08:02:55;;;;;;;19.15;9.73;;;;;;;28.80;49.59;98694.38;5010137;28;20062;-86
2023/08/02 08:05:20;;;;;;;12.32;9.70;;;;;;;28.88;52.41;98681.31;5009731;28;20062;-86
2023/08/02 08:07:46;;;;;;;9.77;8.85;;;;;;;29.11;49.27;98684.81;5009507;28;20030;-86
2023/08/02 08:10:11;;;;;;;26.08;9.82;;;;;;;28.92;49.93;98684.03;5008937;28;20029;-88
2023/08/02 08:12:37;;;;;;;14.90;9.20;;;;;;;29.41;50.89;98687.91;5005851;28;20122;-83
2023/08/02 08:15:03;;;;;;;10.30;8.93;;;;;;;29.25;50.59;98661.09;5006798;28;20034;-82
2023/08/02 08:17:28;;;;;;;11.70;9.07;;;;;;;29.43;49.00;98679.63;5002161;28;20084;-82
2023/08/02 08:19:54;;;;;;;12.50;8.82;;;;;;;29.79;47.97;98671.31;4996204;28;20037;-83
2023/08/02 08:22:21;;;;;;;10.27;9.32;;;;;;;29.36;48.00;98682.81;5004480;28;20030;-82
2023/08/02 08:24:47;;;;;;;10.95;9.73;;;;;;;29.29;47.42;98673.22;5004835;28;20440;-83
2023/08/02 08:27:12;;;;;;;10.50;9.40;;;;;;;29.35;47.62;98666.84;5010653;28;20053;-84
2023/08/02 08:29:37;;;;;;;10.07;8.88;;;;;;;29.52;48.31;98656.56;5011791;28;20057;-83
2023/08/02 08:32:03;;;;;;;21.27;9.60;;;;;;;30.02;47.54;98675.53;5012414;28;20025;-83
2023/08/02 08:34:29;;;;;;;11.38;9.40;;;;;;;30.39;47.45;98666.66;5010875;28;20489;-83
2023/08/02 08:36:54;;;;;;;13.98;9.35;;;;;;;30.73;47.02;98660.81;5009264;28;20477;-83
2023/08/02 08:39:20;;;;;;;10.57;8.98;;;;;;;30.77;45.01;98669.25;5009837;28;20496;-85
2023/08/02 08:41:46;;;;;;;10.70;9.60;;;;;;;30.56;45.55;98671.19;5007179;28;20029;-84
2023/08/02 08:44:12;;;;;;;10.95;9.18;;;;;;;30.72;45.69;98662.13;5009354;28;20034;-85
2023/08/02 08:46:40;;;;;;;10.73;9.60;;;;;;;30.89;44.04;98648.00;5012698;28;20044;-84
2023/08/02 08:49:05;;;;;;;11.07;9.15;;;;;;;30.88;45.13;98657.94;5010668;28;20026;-84
2023/08/02 08:51:38;;;;;;;10.80;8.43;;;;;;;31.11;44.57;98658.34;5013094;28;20049;-85
2023/08/02 08:54:15;;;;;;;11.85;8.82;;;;;;;31.46;43.60;98648.22;5010512;28;20033;-84
2023/08/02 08:56:41;;;;;;;10.35;8.77;;;;;;;31.75;43.41;98661.81;5005845;28;20030;-84
2023/08/02 08:59:08;;;;;;;11.85;8.35;;;;;;;31.82;42.23;98636.72;5009800;28;20076;-84
2023/08/02 09:01:35;;;;;;;9.27;8.32;;;;;;;31.63;43.27;98648.50;5008492;28;20033;-85
2023/08/02 09:04:02;;;;;;;9.23;8.32;;;;;;;31.31;44.20;98645.34;5009481;28;20029;-84
2023/08/02 09:06:28;;;;;;;8.90;8.00;;;;;;;31.63;41.75;98645.59;5006335;28;20033;-85
2023/08/02 09:08:54;;;;;;;18.58;8.65;;;;;;;31.86;42.36;98645.97;5012237;28;20401;-84
2023/08/02 09:11:20;;;;;;;10.65;8.45;;;;;;;31.93;41.92;98648.44;5004903;28;20088;-84
2023/08/02 09:13:45;;;;;;;9.45;8.32;;;;;;;31.62;42.52;98646.91;5007725;28;20409;-84
2023/08/02 09:16:12;;;;;;;14.20;8.55;;;;;;;32.11;41.22;98643.69;5002851;28;20034;-87
2023/08/02 09:18:45;;;;;;;10.20;7.82;;;;;;;32.25;42.24;98648.63;5005550;28;20120;-85
2023/08/02 09:21:15;;;;;;;9.02;8.23;;;;;;;32.33;39.68;98635.28;5005965;28;20038;-84
2023/08/02 09:23:55;;;;;;;8.80;8.00;;;;;;;32.60;39.32;98646.94;4990277;28;20046;-87
2023/08/02 09:26:21;;;;;;;9.70;8.18;;;;;;;32.83;39.22;98645.13;5004101;28;20029;-86
2023/08/02 09:29:00;;;;;;;9.85;7.97;;;;;;;32.43;39.02;98641.78;5008297;28;20063;-83
2023/08/02 09:31:26;;;;;;;;;;;;;;;32.80;38.87;98645.34;5002054;28;20048;-86
2023/08/02 09:33:54;;;;;;;10.02;7.63;;;;;;;32.00;38.80;98635.66;5007197;28;20000;-84
2023/08/02 09:36:26;;;;;;;8.85;7.75;;;;;;;32.61;38.33;98643.56;5007399;28;20029;-85
2023/08/02 09:39:03;;;;;;;13.77;8.45;;;;;;;32.42;37.34;98640.19;5007666;28;20153;-84
2023/08/02 09:41:31;;;;;;;9.07;8.00;;;;;;;32.65;37.66;98640.44;5004069;28;20029;-84
2023/08/02 09:43:57;;;;;;;9.30;8.18;;;;;;;33.00;39.02;98645.28;5008283;28;20651;-85
2023/08/02 09:46:36;;;;;;;8.48;7.70;;;;;;;32.73;38.14;98637.91;5002229;28;20058;-84
2023/08/02 09:49:19;;;;;;;9.70;7.68;;;;;;;32.79;37.80;98632.94;5016287;28;20084;-85
2023/08/02 09:51:45;;;;;;;9.02;8.23;;;;;;;33.47;38.57;98636.53;5004102;28;20042;-85
2023/08/02 09:54:12;;;;;;;9.00;8.10;;;;;;;33.83;37.38;98636.25;5009729;28;20025;-85
2023/08/02 09:56:40;;;;;;;8.90;7.97;;;;;;;33.79;37.61;98618.31;5010086;28;20030;-85
2023/08/02 09:59:06;;;;;;;10.00;8.05;;;;;;;33.96;39.48;98621.31;5010889;28;20032;-85
2023/08/02 10:01:33;;;;;;;9.32;8.52;;;;;;;33.77;38.84;98628.81;5006762;28;20026;-85
2023/08/02 10:04:12;;;;;;;7.78;7.18;;;;;;;33.81;38.78;98618.59;5010993;28;20037;-85
2023/08/02 10:06:49;;;;;;;8.52;7.72;;;;;;;33.99;37.87;98614.50;5007531;28;20040;-85
2023/08/02 10:09:20;;;;;;;8.70;7.90;;;;;;;34.05;36.86;98616.66;5008103;28;20515;-85
2023/08/02 10:11:53;;;;;;;9.55;7.32;;;;;;;33.97;34.77;98608.41;5023676;28;20528;-85
2023/08/02 10:14:19;;;;;;;8.00;7.20;;;;;;;33.85;32.78;98612.53;5006316;28;20022;-84
2023/08/02 10:16:45;;;;;;;9.20;8.30;;;;;;;34.28;34.04;98609.63;5010293;28;20038;-85
2023/08/02 10:19:12;;;;;;;8.50;7.70;;;;;;;34.48;36.06;98598.34;5008269;28;20583;-85
2023/08/02 10:21:39;;;;;;;9.63;7.57;;;;;;;34.52;34.09;98596.81;5006552;28;20034;-84
2023/08/02 10:24:05;;;;;;;7.88;7.18;;;;;;;34.68;35.62;98592.34;5007692;28;20041;-83
2023/08/02 10:26:32;;;;;;;7.50;6.90;;;;;;;34.52;35.03;98587.31;5008718;28;20078;-84
2023/08/02 10:28:59;;;;;;;12.38;7.47;;;;;;;34.57;34.45;98572.81;5004390;28;20429;-84
2023/08/02 10:31:26;;;;;;;6.95;6.25;;;;;;;34.41;33.40;98570.63;5008734;28;20040;-84
2023/08/02 10:33:52;;;;;;;7.57;6.55;;;;;;;34.37;33.83;98568.00;5008632;28;20480;-83
2023/08/02 10:36:17;;;;;;;7.60;6.90;;;;;;;34.89;34.32;98566.00;5004849;28;20037;-84
2023/08/02 10:38:43;;;;;;;8.00;6.75;;;;;;;34.77;34.21;98565.19;5008487;28;20477;-84
2023/08/02 10:41:10;;;;;;;6.97;6.28;;;;;;;34.76;33.07;98543.28;5009206;28;20041;-84
2023/08/02 10:43:54;;;;;;;16.50;6.80;;;;;;;35.31;31.23;98553.88;5007206;28;20025;-84
2023/08/02 10:46:27;;;;;;;7.63;6.82;;;;;;;35.62;31.05;98563.63;5008327;28;20050;-84
2023/08/02 10:49:13;;;;;;;7.60;6.85;;;;;;;35.48;32.44;98553.84;5008964;28;20496;-84
2023/08/02 10:51:39;;;;;;;14.82;6.85;;;;;;;35.23;32.47;98553.59;5008557;28;20066;-84
2023/08/02 10:54:22;;;;;;;9.60;6.82;;;;;;;35.44;31.53;98557.03;5005290;28;20065;-83
2023/08/02 10:57:04;;;;;;;6.82;6.18;;;;;;;35.63;30.72;98557.28;5009003;28;20042;-83
2023/08/02 10:59:30;;;;;;;5.88;5.38;;;;;;;34.70;30.00;98548.28;5002988;28;20055;-84
2023/08/02 11:02:07;;;;;;;17.45;7.85;;;;;;;34.84;30.26;98541.44;5016253;28;20029;-85
2023/08/02 11:04:34;;;;;;;7.05;6.35;;;;;;;35.05;31.84;98525.88;4999952;28;20067;-84
2023/08/02 11:07:18;;;;;;;6.30;5.80;;;;;;;35.49;31.37;98540.91;5002362;28;20101;-83
2023/08/02 11:09:45;;;;;;;6.50;5.78;;;;;;;35.42;30.27;98543.03;5021625;28;20095;-83
2023/08/02 11:12:11;;;;;;;7.30;6.63;;;;;;;35.41;29.11;98537.72;5008081;28;20021;-84
2023/08/02 11:14:42;;;;;;;10.40;6.57;;;;;;;36.04;29.84;98540.50;5004425;28;20037;-82
2023/08/02 11:17:08;;;;;;;9.68;6.25;;;;;;;36.03;29.84;98530.19;5004618;28;20049;-84
2023/08/02 11:19:35;;;;;;;6.88;6.22;;;;;;;36.13;28.93;98531.50;5008486;28;20034;-83